createdAt,value
2022-12-01T00:01:12.685Z,23.50
2022-12-01T00:03:39.697Z,22.67
2022-12-01T00:06:07.954Z,24.77
2022-12-01T00:08:34.864Z,21.33
2022-12-01T00:11:06.214Z,23.30
2022-12-01T00:13:33.533Z,23.23
2022-12-01T00:16:10.564Z,23.40
2022-12-01T00:18:37.537Z,23.93
2022-12-01T00:21:04.374Z,22.97
2022-12-01T00:23:31.821Z,23.93
2022-12-01T00:26:05.298Z,24.17
2022-12-01T00:28:33.516Z,22.67
2022-12-01T00:31:00.324Z,23.90
2022-12-01T00:33:27.125Z,23.37
2022-12-01T00:36:00.547Z,22.37
2022-12-01T00:38:27.541Z,25.60
2022-12-01T00:40:54.441Z,22.93
2022-12-01T00:43:21.244Z,24.00
2022-12-01T00:45:48.154Z,23.57
2022-12-01T00:48:15.037Z,22.73
2022-12-01T00:50:41.865Z,22.93
2022-12-01T00:53:08.757Z,22.73
2022-12-01T00:55:35.611Z,22.33
2022-12-01T00:58:02.385Z,22.73
2022-12-01T01:00:29.201Z,21.93
2022-12-01T01:02:56.131Z,25.23
2022-12-01T01:05:23.467Z,24.73
2022-12-01T01:07:50.326Z,26.03
2022-12-01T01:10:17.318Z,27.13
2022-12-01T01:12:44.102Z,26.07
2022-12-01T01:15:11.686Z,26.67
2022-12-01T01:17:39.560Z,27.33
2022-12-01T01:20:07.046Z,26.17
2022-12-01T01:22:35.196Z,27.80
2022-12-01T01:25:01.966Z,26.93
2022-12-01T01:27:28.731Z,29.50
2022-12-01T01:29:55.593Z,30.67
2022-12-01T01:32:22.362Z,30.23
2022-12-01T01:34:49.155Z,29.63
2022-12-01T01:37:15.953Z,29.93
2022-12-01T01:39:42.740Z,29.50
2022-12-01T01:42:14.739Z,30.13
2022-12-01T01:44:54.225Z,33.70
2022-12-01T01:47:25.322Z,31.90
2022-12-01T01:49:52.524Z,30.47
2022-12-01T01:52:19.309Z,31.83
2022-12-01T01:54:48.008Z,30.67
2022-12-01T01:57:17.133Z,31.13
2022-12-01T01:59:46.222Z,32.23
2022-12-01T02:02:13.322Z,32.03
2022-12-01T02:04:42.330Z,29.67
2022-12-01T02:07:09.485Z,31.33
2022-12-01T02:09:36.612Z,31.70
2022-12-01T02:12:15.445Z,30.47
2022-12-01T02:15:03.011Z,32.30
2022-12-01T02:17:31.361Z,32.40
2022-12-01T02:20:46.975Z,31.93
2022-12-01T02:23:39.060Z,32.33
2022-12-01T02:26:24.290Z,34.17
2022-12-01T02:29:06.106Z,33.03
2022-12-01T02:31:51.413Z,33.43
2022-12-01T02:34:30.403Z,34.87
2022-12-01T02:37:25.086Z,35.20
2022-12-01T02:40:17.064Z,35.60
2022-12-01T02:43:12.121Z,34.37
2022-12-01T02:46:10.570Z,33.40
2022-12-01T02:48:43.051Z,34.00
2022-12-01T02:51:25.742Z,32.93
2022-12-01T02:53:52.561Z,34.00
2022-12-01T02:56:21.097Z,32.13
2022-12-01T02:58:47.893Z,34.83
2022-12-01T03:01:18.275Z,33.00
2022-12-01T03:04:10.949Z,34.50
2022-12-01T03:06:52.505Z,35.10
2022-12-01T03:09:43.628Z,33.50
2022-12-01T03:12:19.465Z,32.77
2022-12-01T03:14:54.029Z,36.50
2022-12-01T03:17:24.310Z,36.27
2022-12-01T03:19:55.823Z,36.20
2022-12-01T03:22:33.882Z,34.13
2022-12-01T03:25:00.704Z,36.00
2022-12-01T03:27:28.921Z,35.23
2022-12-01T03:29:56.996Z,35.97
2022-12-01T03:32:25.011Z,35.73
2022-12-01T03:34:57.501Z,34.83
2022-12-01T03:37:26.084Z,34.50
2022-12-01T03:39:59.933Z,34.73
2022-12-01T03:42:50.336Z,36.07
2022-12-01T03:45:24.668Z,36.43
2022-12-01T03:47:51.821Z,36.77
2022-12-01T03:50:19.037Z,35.33
2022-12-01T03:53:06.911Z,37.40
2022-12-01T03:55:37.960Z,35.77
2022-12-01T03:58:11.609Z,37.73
2022-12-01T04:00:38.445Z,35.63
2022-12-01T04:03:05.397Z,37.67
2022-12-01T04:05:33.519Z,37.13
2022-12-01T04:08:00.766Z,36.50
2022-12-01T04:10:27.669Z,38.10
2022-12-01T04:12:59.247Z,38.03
2022-12-01T04:15:26.264Z,36.80
2022-12-01T04:17:53.204Z,36.73
2022-12-01T04:20:20.207Z,37.73
2022-12-01T04:22:47.374Z,36.03
2022-12-01T04:25:14.178Z,34.27
2022-12-01T04:27:41.032Z,35.00
2022-12-01T04:30:08.365Z,34.07
2022-12-01T04:32:42.342Z,33.20
2022-12-01T04:35:10.190Z,34.77
2022-12-01T04:37:37.218Z,32.97
2022-12-01T04:40:05.788Z,33.43
2022-12-01T04:42:32.597Z,32.77
2022-12-01T04:44:59.401Z,33.37
2022-12-01T04:47:26.229Z,32.27
2022-12-01T04:49:53.201Z,31.17
2022-12-01T04:52:20.012Z,30.03
2022-12-01T04:54:46.927Z,32.20
2022-12-01T04:57:13.728Z,31.47
2022-12-01T04:59:40.562Z,31.70
2022-12-01T05:02:07.662Z,32.37
2022-12-01T05:04:38.489Z,30.87
2022-12-01T05:07:05.525Z,32.07
2022-12-01T05:09:32.395Z,31.47
2022-12-01T05:11:59.166Z,30.47
2022-12-01T05:14:26.025Z,32.60
2022-12-01T05:16:54.456Z,31.73
2022-12-01T05:19:39.677Z,31.70
2022-12-01T05:22:06.480Z,30.87
2022-12-01T05:24:33.257Z,31.53
2022-12-01T05:27:00.122Z,31.93
2022-12-01T05:29:26.919Z,30.10
2022-12-01T05:31:53.782Z,32.13
2022-12-01T05:34:20.686Z,31.80
2022-12-01T05:36:47.432Z,32.27
2022-12-01T05:39:14.352Z,33.60
2022-12-01T05:41:41.152Z,30.17
2022-12-01T05:44:07.904Z,31.93
2022-12-01T05:46:34.713Z,31.63
2022-12-01T05:49:01.486Z,29.43
2022-12-01T05:51:28.253Z,30.67
2022-12-01T05:53:55.261Z,30.13
2022-12-01T05:56:22.219Z,31.93
2022-12-01T05:58:48.995Z,34.43
2022-12-01T06:01:15.982Z,31.40
2022-12-01T06:03:42.892Z,31.60
2022-12-01T06:06:09.793Z,31.33
2022-12-01T06:08:36.642Z,29.83
2022-12-01T06:11:03.428Z,32.60
2022-12-01T06:13:30.253Z,30.40
2022-12-01T06:16:00.676Z,31.47
2022-12-01T06:18:27.764Z,31.30
2022-12-01T06:20:54.544Z,30.57
2022-12-01T06:23:22.695Z,30.77
2022-12-01T06:25:51.055Z,31.20
2022-12-01T06:28:17.868Z,30.50
2022-12-01T06:30:44.756Z,30.13
2022-12-01T06:33:11.684Z,29.17
2022-12-01T06:35:38.576Z,30.13
2022-12-01T06:38:05.522Z,28.57
2022-12-01T06:40:32.494Z,32.03
2022-12-01T06:43:05.094Z,29.23
2022-12-01T06:45:31.946Z,30.93
2022-12-01T06:47:59.833Z,32.43
2022-12-01T06:50:26.712Z,30.37
2022-12-01T06:52:53.923Z,36.23
2022-12-01T06:55:20.748Z,34.33
2022-12-01T06:57:47.812Z,36.93
2022-12-01T07:00:15.433Z,36.03
2022-12-01T07:02:42.444Z,33.47
2022-12-01T07:05:10.678Z,34.23
2022-12-01T07:07:38.731Z,38.40
2022-12-01T07:10:06.406Z,36.93
2022-12-01T07:12:33.224Z,34.67
2022-12-01T07:15:00.116Z,35.37
2022-12-01T07:17:26.923Z,34.50
2022-12-01T07:19:53.700Z,35.37
2022-12-01T07:22:20.529Z,35.67
2022-12-01T07:24:47.330Z,38.47
2022-12-01T07:27:14.233Z,37.57
2022-12-01T07:29:41.097Z,35.93
2022-12-01T07:32:07.940Z,38.33
2022-12-01T07:34:36.776Z,36.53
2022-12-01T07:37:03.614Z,35.07
2022-12-01T07:39:30.420Z,37.70
2022-12-01T07:41:57.238Z,37.30
2022-12-01T07:44:24.064Z,37.87
2022-12-01T07:46:50.835Z,37.27
2022-12-01T07:49:17.629Z,36.90
2022-12-01T07:51:45.435Z,35.17
2022-12-01T07:54:14.319Z,37.67
2022-12-01T07:56:41.306Z,35.50
2022-12-01T07:59:08.146Z,34.20
2022-12-01T08:01:35.217Z,34.13
2022-12-01T08:04:02.154Z,30.30
2022-12-01T08:06:29.010Z,32.77
2022-12-01T08:08:55.918Z,32.47
2022-12-01T08:11:24.391Z,30.57
2022-12-01T08:13:51.476Z,31.53
2022-12-01T08:16:19.586Z,31.47
2022-12-01T08:18:46.437Z,29.73
2022-12-01T08:21:16.124Z,31.17
2022-12-01T08:23:43.204Z,29.13
2022-12-01T08:26:15.783Z,30.03
2022-12-01T08:28:42.860Z,31.23
2022-12-01T08:31:13.810Z,31.13
2022-12-01T08:33:40.733Z,31.67
2022-12-01T08:36:07.816Z,31.40
2022-12-01T08:38:34.730Z,35.60
2022-12-01T08:41:02.820Z,33.27
2022-12-01T08:43:56.126Z,31.77
2022-12-01T08:46:16.516Z,30.97
2022-12-01T08:48:43.398Z,33.17
2022-12-01T08:51:14.542Z,33.57
2022-12-01T08:53:45.620Z,33.47
2022-12-01T08:56:24.206Z,33.20
2022-12-01T08:58:53.878Z,36.27
2022-12-01T09:01:20.951Z,37.40
2022-12-01T09:03:47.774Z,38.87
2022-12-01T09:06:20.829Z,37.43
2022-12-01T09:08:47.705Z,36.67
2022-12-01T09:11:18.593Z,38.43
2022-12-01T09:13:51.330Z,34.90
2022-12-01T09:16:21.324Z,33.47
2022-12-01T09:18:48.274Z,35.67
2022-12-01T09:21:20.616Z,36.23
2022-12-01T09:23:47.561Z,34.57
2022-12-01T09:26:18.240Z,35.07
2022-12-01T09:28:46.036Z,33.30
2022-12-01T09:31:13.408Z,33.97
2022-12-01T09:33:40.280Z,35.50
2022-12-01T09:36:08.901Z,35.13
2022-12-01T09:38:36.120Z,34.33
2022-12-01T09:41:06.194Z,34.23
2022-12-01T09:43:45.809Z,36.10
2022-12-01T09:46:19.760Z,35.20
2022-12-01T09:48:47.588Z,34.17
2022-12-01T09:51:22.038Z,33.60
2022-12-01T09:53:56.779Z,31.73
2022-12-01T09:56:25.086Z,33.80
2022-12-01T09:58:59.837Z,31.90
2022-12-01T10:01:37.747Z,33.67
2022-12-01T10:04:33.809Z,32.33
2022-12-01T10:07:00.782Z,30.10
2022-12-01T10:09:38.234Z,30.00
2022-12-01T10:12:14.710Z,31.70
2022-12-01T10:14:41.579Z,29.13
2022-12-01T10:17:27.190Z,29.63
2022-12-01T10:20:15.785Z,30.27
2022-12-01T10:23:01.572Z,29.53
2022-12-01T10:25:31.538Z,30.60
2022-12-01T10:28:56.261Z,29.40
2022-12-01T10:31:40.997Z,27.23
2022-12-01T10:34:14.109Z,28.87
2022-12-01T10:36:40.886Z,29.57
2022-12-01T10:39:07.738Z,28.17
2022-12-01T10:41:36.253Z,30.37
2022-12-01T10:44:05.520Z,28.07
2022-12-01T10:46:51.874Z,29.50
2022-12-01T10:49:19.217Z,28.27
2022-12-01T10:51:51.701Z,28.40
2022-12-01T10:54:18.847Z,30.27
2022-12-01T10:56:48.100Z,28.93
2022-12-01T10:59:20.836Z,28.07
2022-12-01T11:01:48.233Z,26.67
2022-12-01T11:04:46.491Z,24.73
2022-12-01T11:07:33.160Z,25.23
2022-12-01T11:10:21.929Z,28.03
2022-12-01T11:12:59.561Z,27.00
2022-12-01T11:15:28.421Z,24.90
2022-12-01T11:18:30.262Z,27.33
2022-12-01T11:21:07.658Z,25.27
2022-12-01T11:23:53.879Z,24.73
2022-12-01T11:26:27.470Z,26.03
2022-12-01T11:29:04.781Z,25.37
2022-12-01T11:31:42.493Z,25.80
2022-12-01T11:34:21.169Z,22.00
2022-12-01T11:36:50.491Z,23.93
2022-12-01T11:39:26.259Z,23.57
2022-12-01T11:41:57.537Z,24.17
2022-12-01T11:50:11.073Z,22.03
2022-12-01T11:52:46.126Z,22.00
2022-12-01T11:55:12.953Z,21.77
2022-12-01T11:57:42.985Z,21.47
2022-12-01T12:00:17.142Z,20.20
2022-12-01T12:03:02.823Z,19.93
2022-12-01T12:05:45.814Z,19.33
2022-12-01T12:08:31.223Z,19.57
2022-12-01T12:11:29.665Z,20.07
2022-12-01T12:13:56.601Z,19.83
2022-12-01T12:16:31.984Z,18.70
2022-12-01T12:19:07.421Z,18.00
2022-12-01T12:21:39.162Z,18.37
2022-12-01T12:24:17.768Z,17.67
2022-12-01T12:27:03.878Z,17.57
2022-12-01T12:29:36.477Z,17.17
2022-12-01T12:32:15.140Z,19.87
2022-12-01T12:34:58.590Z,15.97
2022-12-01T12:37:31.193Z,16.73
2022-12-01T12:40:19.617Z,18.60
2022-12-01T12:43:14.211Z,19.60
2022-12-01T12:46:11.287Z,17.10
2022-12-01T12:49:19.401Z,16.93
2022-12-01T12:52:08.654Z,16.10
2022-12-01T12:54:53.567Z,17.07
2022-12-01T12:57:36.653Z,15.87
2022-12-01T13:00:07.195Z,15.60
2022-12-01T13:02:42.693Z,15.67
2022-12-01T13:05:36.194Z,15.67
2022-12-01T13:08:13.790Z,18.80
2022-12-01T13:10:46.552Z,17.93
2022-12-01T13:13:19.189Z,16.70
2022-12-01T13:15:46.540Z,18.30
2022-12-01T13:18:25.113Z,17.50
2022-12-01T13:20:52.261Z,19.37
2022-12-01T13:23:21.170Z,19.53
2022-12-01T13:25:50.520Z,19.50
2022-12-01T13:28:28.044Z,19.33
2022-12-01T13:31:02.737Z,20.50
2022-12-01T13:33:29.901Z,20.00
2022-12-01T13:36:23.020Z,21.03
2022-12-01T13:38:43.599Z,20.07
2022-12-01T13:41:19.581Z,19.47
2022-12-01T13:44:21.153Z,20.97
2022-12-01T13:46:47.978Z,20.93
2022-12-01T13:49:42.594Z,21.27
2022-12-01T13:52:21.127Z,19.37
2022-12-01T13:55:08.210Z,20.20
2022-12-01T13:57:45.191Z,19.67
2022-12-01T14:00:28.647Z,19.63
2022-12-01T14:03:13.686Z,17.10
2022-12-01T14:05:40.500Z,17.67
2022-12-01T14:08:23.281Z,19.50
2022-12-01T14:10:56.673Z,18.07
2022-12-01T14:13:23.571Z,19.87
2022-12-01T14:16:00.863Z,16.47
2022-12-01T14:18:30.980Z,18.10
2022-12-01T14:20:57.738Z,17.23
2022-12-01T14:23:29.106Z,18.40
2022-12-01T14:26:02.239Z,18.97
2022-12-01T14:28:55.202Z,19.20
2022-12-01T14:31:25.956Z,18.43
2022-12-01T14:33:53.453Z,18.17
2022-12-01T14:36:32.336Z,19.97
2022-12-01T14:38:59.128Z,19.37
2022-12-01T14:41:46.161Z,20.30
2022-12-01T14:44:43.633Z,20.53
2022-12-01T14:47:10.722Z,18.47
2022-12-01T14:49:56.342Z,19.43
2022-12-01T14:52:29.317Z,18.43
2022-12-01T14:54:58.816Z,18.73
2022-12-01T14:57:30.578Z,20.67
2022-12-01T15:00:17.970Z,18.77
2022-12-01T15:02:52.608Z,19.00
2022-12-01T15:05:21.937Z,19.43
2022-12-01T15:07:54.278Z,19.07
2022-12-01T15:10:35.116Z,19.87
2022-12-01T15:13:24.494Z,18.50
2022-12-01T15:15:53.023Z,19.60
2022-12-01T15:18:24.713Z,19.67
2022-12-01T15:20:51.526Z,18.63
2022-12-01T15:23:18.309Z,20.23
2022-12-01T15:25:45.929Z,19.40
2022-12-01T15:33:46.883Z,19.65
2022-12-01T15:37:18.794Z,19.00
2022-12-01T15:54:47.583Z,14.73
2022-12-01T15:57:19.135Z,16.37
2022-12-01T16:02:57.515Z,15.33
2022-12-01T16:05:32.925Z,13.46
2022-12-01T16:09:06.133Z,15.35
2022-12-01T16:38:43.978Z,15.20
2022-12-01T16:45:02.437Z,16.80
2022-12-01T17:03:29.683Z,15.38
2022-12-01T17:07:04.481Z,16.90
2022-12-01T17:35:41.755Z,18.88
2022-12-01T17:53:49.514Z,19.35
2022-12-01T18:00:08.630Z,17.90
2022-12-01T18:18:15.951Z,16.98
2022-12-01T18:24:34.527Z,21.77
2022-12-01T18:42:41.917Z,19.27
2022-12-01T18:49:04.687Z,17.77
2022-12-01T19:07:12.940Z,16.83
2022-12-01T19:13:32.014Z,19.95
2022-12-01T19:31:39.398Z,14.93
2022-12-01T19:37:57.929Z,14.18
2022-12-01T19:56:06.353Z,12.77
2022-12-01T20:02:28.925Z,16.80
2022-12-01T20:20:36.610Z,15.50
2022-12-01T20:26:56.969Z,16.92
2022-12-01T20:45:07.083Z,13.85
2022-12-01T20:51:25.580Z,13.32
2022-12-01T21:09:32.986Z,13.50
2022-12-01T21:15:57.334Z,14.80
2022-12-01T21:34:21.801Z,13.15
2022-12-01T21:40:43.099Z,12.88
2022-12-01T21:59:24.246Z,12.43
2022-12-01T22:06:28.342Z,14.75
2022-12-01T22:24:47.486Z,14.00
2022-12-01T22:31:15.452Z,14.23
2022-12-01T22:49:45.423Z,14.63
2022-12-01T22:56:03.972Z,15.90
2022-12-01T23:14:33.160Z,13.05
2022-12-01T23:20:53.236Z,14.52
2022-12-01T23:39:33.078Z,11.68
2022-12-01T23:45:27.559Z,14.45
2022-12-01T23:51:48.442Z,16.13
